Songkhla, Thailand
Current Conditions -  °F | °C
As of 12:00 AM on Tuesday 23 Dec 2014 (Local Time) from VTSS Reporting Station
Broken Clouds Broken Clouds  
Wind Chill: 77°   Ceiling: 12000
Heat Index: 78°   Visibility: 6mi
Dew Point: 75°   Wind: 5mph
Humidity: 94%   Direction: 360°N
Pressure: 29.83"   Gusts: NA
Location:  7.21°N, 100.56°E
Report Text: VTSS 221700Z 36004KT 9999 FEW016CB SCT018 BKN120 25/24 Q1010 A2982 NOSIG
Loading
Personal Weather Stations






























Interactive Weather Map New forecast layout! Learn more

10-Day Weather Forecast

Advertisements
Track Severe Weather on mobile